Time;durP1;ratioP1;P1;durP2;ratioP2;P2;SDS_P1;SDS_P2;PMS_P1;PMS_P2;Temp;Humidity;BMP_temperature;BMP_pressure;BME280_temperature;BME280_humidity;BME280_pressure;Samples;Min_cycle;Max_cycle;Signal;HPM_P1;HPM_P2
2023/03/10 00:00:47;;;;;;;8.27;4.22;;;;;;;5.11;100.00;92104.31;5029721;28;20042;-63
2023/03/10 00:03:14;;;;;;;8.25;3.85;;;;;;;5.08;100.00;92097.00;5031570;28;20071;-63
2023/03/10 00:05:41;;;;;;;7.30;3.03;;;;;;;5.08;100.00;92105.91;5029382;28;20053;-63
2023/03/10 00:08:08;;;;;;;7.53;2.90;;;;;;;5.09;100.00;92093.88;5031489;28;20047;-63
2023/03/10 00:10:35;;;;;;;9.18;2.42;;;;;;;5.11;100.00;92082.56;5031029;28;20050;-63
2023/03/10 00:13:01;;;;;;;4.22;1.60;;;;;;;5.07;100.00;92081.88;5031181;28;20037;-64
2023/03/10 00:15:28;;;;;;;9.07;4.40;;;;;;;4.95;100.00;92081.38;5029545;28;20049;-64
2023/03/10 00:17:55;;;;;;;10.02;4.50;;;;;;;4.92;100.00;92081.47;5031015;28;20054;-62
2023/03/10 00:20:22;;;;;;;7.47;3.10;;;;;;;4.91;100.00;92083.41;5031404;28;20052;-62
2023/03/10 00:22:49;;;;;;;6.00;3.08;;;;;;;4.92;100.00;92076.78;5030358;28;20095;-63
2023/03/10 00:25:16;;;;;;;6.97;3.13;;;;;;;4.91;100.00;92079.91;5030985;28;20050;-62
2023/03/10 00:27:42;;;;;;;6.10;2.78;;;;;;;4.87;100.00;92069.16;5030489;28;20111;-62
2023/03/10 00:30:09;;;;;;;6.65;3.20;;;;;;;4.90;100.00;92072.97;5030779;28;20099;-62
2023/03/10 00:32:36;;;;;;;8.97;4.10;;;;;;;4.80;100.00;92072.78;5030770;28;20057;-62
2023/03/10 00:35:05;;;;;;;9.07;4.28;;;;;;;4.63;100.00;92070.47;5029272;28;20106;-62
2023/03/10 00:37:35;;;;;;;11.27;4.93;;;;;;;4.78;100.00;92067.00;5030703;28;20060;-62
2023/03/10 00:40:03;;;;;;;11.10;5.00;;;;;;;4.88;100.00;92051.63;5009292;28;20042;-63
2023/03/10 00:42:30;;;;;;;11.20;5.70;;;;;;;4.74;100.00;92060.13;5010734;28;20407;-63
2023/03/10 00:44:57;;;;;;;11.17;4.70;;;;;;;4.79;100.00;92070.50;5010196;28;20076;-62
2023/03/10 00:47:23;;;;;;;9.82;5.05;;;;;;;4.79;100.00;92079.41;5009708;28;20046;-63
2023/03/10 00:49:50;;;;;;;10.48;4.28;;;;;;;4.73;100.00;92075.69;5008983;28;20050;-62
2023/03/10 00:52:17;;;;;;;10.20;5.30;;;;;;;4.72;100.00;92071.41;5009659;28;20054;-62
2023/03/10 00:54:43;;;;;;;13.63;5.70;;;;;;;4.55;100.00;92073.38;5010193;28;20300;-62
2023/03/10 00:57:10;;;;;;;7.87;3.70;;;;;;;4.49;100.00;92066.16;5009626;28;20056;-62
2023/03/10 00:59:37;;;;;;;10.48;4.75;;;;;;;4.48;100.00;92072.75;5025257;28;20410;-63
2023/03/10 01:02:19;;;;;;;11.57;5.45;;;;;;;4.55;100.00;92067.94;5029337;28;20387;-62
2023/03/10 01:04:47;;;;;;;5.60;2.53;;;;;;;5.22;100.00;92064.03;5029846;28;20253;-62
2023/03/10 01:07:14;;;;;;;6.80;3.35;;;;;;;5.63;100.00;92070.75;5030416;28;20095;-62
2023/03/10 01:09:40;;;;;;;5.83;2.20;;;;;;;6.07;100.00;92057.53;5029562;28;20053;-62
2023/03/10 01:12:07;;;;;;;3.97;2.03;;;;;;;6.31;100.00;92060.72;5030291;28;20045;-63
2023/03/10 01:14:34;;;;;;;4.82;1.83;;;;;;;6.68;100.00;92044.06;5029923;28;20049;-63
2023/03/10 01:17:02;;;;;;;3.53;1.20;;;;;;;6.97;100.00;92039.25;5029618;28;20609;-63
2023/03/10 01:19:30;;;;;;;3.20;1.25;;;;;;;7.14;100.00;92048.09;5029988;28;20400;-64
2023/03/10 01:21:56;;;;;;;3.57;1.43;;;;;;;7.13;100.00;92049.28;5029450;28;20041;-63
2023/03/10 01:24:24;;;;;;;4.65;1.30;;;;;;;7.11;100.00;92045.47;5030252;28;20045;-64
2023/03/10 01:26:51;;;;;;;4.20;1.75;;;;;;;7.14;100.00;92048.09;5029314;28;20508;-63
2023/03/10 01:29:18;;;;;;;3.13;1.08;;;;;;;7.19;100.00;92047.50;5029741;28;20063;-63
2023/03/10 01:31:45;;;;;;;2.90;1.10;;;;;;;7.13;100.00;92049.28;5029473;28;20041;-63
2023/03/10 01:34:11;;;;;;;3.80;1.37;;;;;;;7.10;100.00;92046.66;5030044;28;20049;-63
2023/03/10 01:36:40;;;;;;;3.33;1.60;;;;;;;7.04;100.00;92051.13;5028479;28;20103;-64
2023/03/10 01:39:07;;;;;;;3.83;1.70;;;;;;;7.00;100.00;92059.44;5022887;28;20690;-64
2023/03/10 01:41:37;;;;;;;4.40;1.30;;;;;;;6.94;100.00;92050.28;5013290;28;20054;-64
2023/03/10 01:44:10;;;;;;;2.30;1.13;;;;;;;6.88;100.00;92035.66;5029665;28;20083;-63
2023/03/10 01:46:41;;;;;;;3.40;0.90;;;;;;;6.89;100.00;92056.28;5030165;28;20045;-64
2023/03/10 01:49:16;;;;;;;3.35;0.90;;;;;;;6.76;100.00;92053.56;5029157;28;20575;-64
2023/03/10 01:51:48;;;;;;;2.25;1.00;;;;;;;6.71;100.00;92052.16;5026888;28;20536;-63
2023/03/10 01:54:19;;;;;;;2.00;0.82;;;;;;;6.66;100.00;92054.66;5030252;28;20075;-64
2023/03/10 01:56:48;;;;;;;3.60;1.40;;;;;;;6.65;100.00;92043.00;5029328;28;20102;-63
2023/03/10 01:59:15;;;;;;;4.07;1.07;;;;;;;6.59;100.00;92039.28;5029912;28;20046;-64
2023/03/10 02:01:42;;;;;;;2.45;0.90;;;;;;;6.62;100.00;92037.66;5029390;28;20397;-64
2023/03/10 02:04:22;;;;;;;3.08;1.42;;;;;;;6.51;100.00;92016.19;5029928;28;20517;-62
2023/03/10 02:06:50;;;;;;;2.25;1.00;;;;;;;6.44;100.00;92021.84;5029481;28;20409;-62
2023/03/10 02:09:17;;;;;;;2.95;1.35;;;;;;;6.36;100.00;92024.03;5029658;28;20076;-62
2023/03/10 02:11:46;;;;;;;2.93;1.23;;;;;;;6.38;100.00;92019.66;5042536;28;20037;-62
2023/03/10 02:14:14;;;;;;;3.90;1.40;;;;;;;6.34;100.00;92010.84;5028455;28;20417;-63
2023/03/10 02:16:40;;;;;;;2.83;1.40;;;;;;;6.32;100.00;92010.50;5028440;28;20053;-62
2023/03/10 02:19:21;;;;;;;2.83;1.10;;;;;;;6.37;100.00;92018.13;5029917;28;20038;-63
2023/03/10 02:22:01;;;;;;;2.70;1.25;;;;;;;6.34;100.00;92012.81;5029331;28;20379;-63
2023/03/10 02:24:38;;;;;;;3.43;1.30;;;;;;;6.40;100.00;92003.66;5030438;28;20548;-63
2023/03/10 02:27:23;;;;;;;3.03;1.08;;;;;;;6.40;100.00;92009.09;5025608;28;20255;-63
2023/03/10 02:30:08;;;;;;;2.63;1.27;;;;;;;6.46;100.00;92000.34;5029141;28;20064;-63
2023/03/10 02:32:41;;;;;;;2.70;1.45;;;;;;;6.50;100.00;92009.97;5028273;28;20050;-64
2023/03/10 02:35:08;;;;;;;2.78;1.45;;;;;;;6.51;100.00;91999.81;5041899;28;20041;-64
2023/03/10 02:37:35;;;;;;;3.10;1.33;;;;;;;6.50;100.00;92003.75;5028637;28;20037;-64
2023/03/10 02:40:06;;;;;;;3.85;1.30;;;;;;;6.48;100.00;92014.31;5009600;28;20042;-64
2023/03/10 02:42:35;;;;;;;3.03;1.60;;;;;;;6.47;100.00;92002.66;5015827;28;20285;-64
2023/03/10 02:45:03;;;;;;;3.13;1.10;;;;;;;6.41;100.00;91996.22;5027916;28;20042;-63
2023/03/10 02:47:30;;;;;;;2.38;1.25;;;;;;;6.32;100.00;92009.75;5029537;28;20461;-64
2023/03/10 02:49:56;;;;;;;2.87;1.20;;;;;;;6.23;100.00;92001.44;5027794;28;20430;-63
2023/03/10 02:52:43;;;;;;;2.60;1.30;;;;;;;6.21;100.00;92004.59;5028238;28;20053;-63
2023/03/10 02:55:17;;;;;;;3.38;1.55;;;;;;;6.23;100.00;92021.28;5028687;28;20813;-64
2023/03/10 02:57:43;;;;;;;3.13;1.20;;;;;;;6.23;100.00;92015.81;5028116;28;20044;-63
2023/03/10 03:00:11;;;;;;;2.35;1.20;;;;;;;6.20;100.00;92014.00;5029185;28;20099;-63
2023/03/10 03:02:37;;;;;;;2.27;1.20;;;;;;;6.20;100.00;92005.81;5031953;28;20054;-63
2023/03/10 03:05:04;;;;;;;2.60;1.30;;;;;;;6.17;100.00;92017.56;5031793;28;20152;-63
2023/03/10 03:07:31;;;;;;;3.33;1.45;;;;;;;6.18;100.00;92014.41;5032954;28;20509;-64
2023/03/10 03:09:58;;;;;;;4.28;1.00;;;;;;;6.25;100.00;92018.88;5032642;28;20052;-63
2023/03/10 03:12:24;;;;;;;2.80;1.25;;;;;;;6.25;100.00;92004.50;5034564;28;20501;-64
2023/03/10 03:14:51;;;;;;;3.13;1.03;;;;;;;6.27;100.00;92013.00;5032465;28;20041;-63
2023/03/10 03:17:18;;;;;;;2.25;0.90;;;;;;;6.25;100.00;91996.34;5031753;28;20053;-63
2023/03/10 03:19:44;;;;;;;4.07;1.88;;;;;;;6.24;100.00;91995.56;5032331;28;20037;-64
2023/03/10 03:22:11;;;;;;;2.38;0.90;;;;;;;6.18;100.00;91995.34;5032563;28;20548;-64
2023/03/10 03:24:38;;;;;;;2.72;1.38;;;;;;;6.17;100.00;91988.38;5032371;28;20433;-64
2023/03/10 03:27:04;;;;;;;2.40;1.20;;;;;;;6.20;100.00;91984.78;5031689;28;20778;-64
2023/03/10 03:29:31;;;;;;;2.33;0.90;;;;;;;6.22;100.00;91970.75;5032370;28;20042;-63
2023/03/10 03:31:58;;;;;;;2.25;1.27;;;;;;;6.21;100.00;91974.66;5032223;28;20102;-63
2023/03/10 03:34:25;;;;;;;3.92;1.15;;;;;;;6.23;100.00;91966.81;5032516;28;20052;-64
2023/03/10 03:36:52;;;;;;;2.58;1.45;;;;;;;6.18;100.00;91970.84;5032150;28;20061;-64
2023/03/10 03:39:18;;;;;;;2.00;1.00;;;;;;;6.14;100.00;91967.47;5018351;28;20073;-63
2023/03/10 03:41:45;;;;;;;2.30;1.20;;;;;;;6.09;100.00;91973.44;5012149;28;20053;-63
2023/03/10 03:44:12;;;;;;;4.10;1.63;;;;;;;6.06;100.00;91973.56;5031888;28;20049;-63
2023/03/10 03:46:39;;;;;;;2.53;1.30;;;;;;;6.04;100.00;91962.31;5031857;28;20047;-60
2023/03/10 03:49:05;;;;;;;2.85;1.30;;;;;;;6.08;100.00;91973.88;5032152;28;20045;-64
2023/03/10 03:51:35;;;;;;;3.37;1.10;;;;;;;6.10;100.00;91971.50;5032280;28;20076;-63
2023/03/10 03:54:02;;;;;;;2.78;1.30;;;;;;;6.16;100.00;91972.47;5030230;28;20069;-63
2023/03/10 03:56:29;;;;;;;4.75;1.67;;;;;;;6.19;100.00;91960.69;5031931;28;20057;-63
2023/03/10 03:58:56;;;;;;;3.08;1.58;;;;;;;6.24;100.00;91960.16;5031271;28;20425;-63
2023/03/10 04:01:23;;;;;;;2.45;1.20;;;;;;;6.28;100.00;91960.81;5032188;28;20060;-63
2023/03/10 04:03:50;;;;;;;3.60;1.33;;;;;;;6.30;100.00;91960.38;5031082;28;20042;-64
2023/03/10 04:06:17;;;;;;;2.30;1.10;;;;;;;6.34;100.00;91967.25;5032037;28;20055;-63
2023/03/10 04:08:44;;;;;;;3.47;1.45;;;;;;;6.35;100.00;91960.59;5031385;28;20494;-63
2023/03/10 04:11:10;;;;;;;2.40;1.30;;;;;;;6.32;100.00;91961.47;5031621;28;20045;-63
2023/03/10 04:13:37;;;;;;;2.72;1.30;;;;;;;6.34;100.00;91961.03;5029595;28;20053;-63
2023/03/10 04:16:04;;;;;;;3.00;1.23;;;;;;;6.28;100.00;91954.59;5029460;28;20544;-63
2023/03/10 04:18:31;;;;;;;3.25;1.30;;;;;;;6.32;100.00;91950.56;5039771;28;20049;-64
2023/03/10 04:20:58;;;;;;;3.15;1.50;;;;;;;6.32;100.00;91947.09;5036075;28;20041;-63
2023/03/10 04:23:24;;;;;;;3.83;1.20;;;;;;;6.33;100.00;91954.06;5030008;28;20045;-63
2023/03/10 04:25:51;;;;;;;4.45;1.60;;;;;;;6.33;100.00;91943.91;5030946;28;20050;-63
2023/03/10 04:28:18;;;;;;;2.67;1.10;;;;;;;6.28;100.00;91939.03;5031267;28;20052;-63
2023/03/10 04:30:46;;;;;;;2.70;1.42;;;;;;;6.19;100.00;91926.03;5029155;28;20080;-63
2023/03/10 04:33:13;;;;;;;2.50;1.25;;;;;;;6.20;100.00;91926.84;5031018;28;20045;-63
2023/03/10 04:35:41;;;;;;;2.13;1.20;;;;;;;6.17;100.00;91920.28;5030834;28;20041;-61
2023/03/10 04:38:08;;;;;;;2.58;1.40;;;;;;;6.17;100.00;91923.00;5027210;28;20392;-63
2023/03/10 04:40:35;;;;;;;3.33;1.17;;;;;;;6.12;100.00;91906.47;5011485;28;20103;-63
2023/03/10 04:43:01;;;;;;;2.50;1.20;;;;;;;6.11;100.00;91910.38;5022156;28;20068;-63
2023/03/10 04:45:28;;;;;;;3.63;1.63;;;;;;;6.17;100.00;91922.25;5031007;28;20045;-63
2023/03/10 04:47:55;;;;;;;2.10;1.10;;;;;;;6.18;100.00;91910.16;5030644;28;20130;-63
2023/03/10 04:50:21;;;;;;;2.50;1.50;;;;;;;6.18;100.00;91897.31;5030757;28;20482;-63
2023/03/10 04:52:49;;;;;;;2.33;1.40;;;;;;;6.16;100.00;91899.69;5030328;28;20038;-63
2023/03/10 04:55:15;;;;;;;2.45;1.40;;;;;;;6.17;100.00;91890.31;5030907;28;20060;-63
2023/03/10 04:57:42;;;;;;;2.20;1.30;;;;;;;6.18;100.00;91883.69;5030327;28;20069;-64
2023/03/10 05:00:11;;;;;;;3.83;1.33;;;;;;;6.20;100.00;91878.56;5029251;28;20041;-64
2023/03/10 05:02:39;;;;;;;2.80;1.48;;;;;;;6.18;100.00;91856.44;5030637;28;20052;-64
2023/03/10 05:05:06;;;;;;;2.70;1.60;;;;;;;6.11;100.00;91866.81;5029968;28;20414;-64
2023/03/10 05:07:33;;;;;;;3.13;1.70;;;;;;;6.11;100.00;91855.91;5030596;28;20037;-64
2023/03/10 05:09:59;;;;;;;2.72;1.70;;;;;;;6.12;100.00;91849.28;5030228;28;20057;-64
2023/03/10 05:12:26;;;;;;;4.13;1.50;;;;;;;6.11;100.00;91843.06;5043814;28;20055;-64
2023/03/10 05:14:53;;;;;;;10.93;5.57;;;;;;;6.12;100.00;91846.56;5009152;28;20103;-64
2023/03/10 05:17:19;;;;;;;2.57;1.57;;;;;;;6.09;100.00;91842.72;5025132;28;20045;-64
2023/03/10 05:19:46;;;;;;;13.30;6.38;;;;;;;6.09;100.00;91834.56;5028687;28;20107;-64
2023/03/10 05:22:13;;;;;;;18.83;8.40;;;;;;;6.09;100.00;91831.84;5030222;28;20044;-64
2023/03/10 05:24:40;;;;;;;11.55;5.47;;;;;;;6.12;100.00;91830.22;5028285;28;20091;-63
2023/03/10 05:27:07;;;;;;;4.20;2.25;;;;;;;6.13;100.00;91826.28;5029943;28;20048;-62
2023/03/10 05:29:34;;;;;;;21.40;11.63;;;;;;;6.15;100.00;91834.78;5029995;28;20053;-63
2023/03/10 05:32:01;;;;;;;6.40;3.20;;;;;;;6.09;100.00;91825.63;5028541;28;20045;-63
2023/03/10 05:34:27;;;;;;;9.38;5.03;;;;;;;6.06;100.00;91821.06;5028709;28;20053;-63
2023/03/10 05:36:55;;;;;;;18.48;10.63;;;;;;;5.96;100.00;91810.06;5029483;28;20045;-63
2023/03/10 05:39:22;;;;;;;9.43;5.93;;;;;;;5.93;100.00;91796.53;5028546;28;20054;-63
2023/03/10 05:41:49;;;;;;;15.10;10.03;;;;;;;5.90;100.00;91798.19;5029481;28;20090;-64
2023/03/10 05:44:16;;;;;;;7.28;4.30;;;;;;;6.01;100.00;91811.47;5033427;28;20417;-63
2023/03/10 05:46:43;;;;;;;12.02;5.38;;;;;;;6.03;100.00;91805.59;5038947;28;20111;-63
2023/03/10 05:49:10;;;;;;;7.93;4.22;;;;;;;6.03;100.00;91794.72;5030020;28;20037;-63
2023/03/10 05:51:36;;;;;;;8.18;4.22;;;;;;;5.99;100.00;91795.56;5028428;28;20049;-63
2023/03/10 05:54:05;;;;;;;6.97;2.80;;;;;;;6.00;100.00;91782.75;5027841;28;20042;-63
2023/03/10 05:56:31;;;;;;;12.27;4.30;;;;;;;6.00;100.00;91771.84;5029690;28;20049;-63
2023/03/10 05:58:58;;;;;;;14.60;6.78;;;;;;;5.95;100.00;91775.88;5027768;28;20118;-63
2023/03/10 06:01:25;;;;;;;6.70;3.53;;;;;;;5.90;100.00;91784.56;5023433;28;20049;-63
2023/03/10 06:03:52;;;;;;;6.70;3.55;;;;;;;5.96;100.00;91785.56;5023017;28;20056;-63
2023/03/10 06:06:19;;;;;;;3.73;2.03;;;;;;;6.02;100.00;91780.34;5029537;28;20048;-63
2023/03/10 06:08:46;;;;;;;10.48;6.10;;;;;;;6.01;100.00;91778.81;5029355;28;20411;-63
2023/03/10 06:11:12;;;;;;;4.00;2.55;;;;;;;5.99;100.00;91764.88;5029701;28;20472;-63
2023/03/10 06:13:39;;;;;;;6.40;3.75;;;;;;;6.03;100.00;91770.22;5029109;28;20042;-59
2023/03/10 06:16:06;;;;;;;5.85;2.75;;;;;;;6.03;100.00;91764.75;5029803;28;20052;-64
2023/03/10 06:18:34;;;;;;;6.07;3.20;;;;;;;6.07;100.00;91762.69;5016594;28;20049;-63
2023/03/10 06:21:06;;;;;;;8.70;5.32;;;;;;;6.17;100.00;91759.59;5029119;28;20486;-63
2023/03/10 06:23:33;;;;;;;4.85;2.10;;;;;;;6.27;100.00;91765.88;5028563;28;20045;-63
2023/03/10 06:26:10;;;;;;;2.28;1.13;;;;;;;6.39;100.00;91761.59;5028319;28;20046;-64
2023/03/10 06:28:38;;;;;;;3.00;1.90;;;;;;;6.53;100.00;91736.59;5021895;28;20044;-63
2023/03/10 06:31:11;;;;;;;4.53;2.00;;;;;;;6.58;100.00;91748.91;5033814;28;21741;-63
2023/03/10 06:33:37;;;;;;;5.05;3.15;;;;;;;6.69;100.00;91751.25;5028660;28;20450;-64
2023/03/10 06:36:05;;;;;;;3.55;2.35;;;;;;;6.82;100.00;91751.91;5028089;28;20835;-63
2023/03/10 06:38:32;;;;;;;5.50;2.45;;;;;;;6.83;100.00;91745.28;5031887;28;20067;-63
2023/03/10 06:40:58;;;;;;;6.50;3.25;;;;;;;6.86;100.00;91749.06;5030414;28;20106;-63
2023/03/10 06:43:25;;;;;;;5.83;2.83;;;;;;;6.74;100.00;91745.97;5031849;28;20068;-63
2023/03/10 06:45:52;;;;;;;4.53;2.45;;;;;;;6.58;100.00;91743.44;5031477;28;20175;-63
2023/03/10 06:48:19;;;;;;;6.43;4.47;;;;;;;6.42;100.00;91749.84;5030177;28;20427;-63
2023/03/10 06:50:47;;;;;;;6.68;3.65;;;;;;;6.42;100.00;91758.00;5031362;28;20056;-63
2023/03/10 06:53:15;;;;;;;5.93;3.45;;;;;;;6.49;100.00;91757.00;5031608;28;20271;-63
2023/03/10 06:55:42;;;;;;;4.60;1.80;;;;;;;6.56;100.00;91746.59;5031589;28;20037;-63
2023/03/10 06:58:09;;;;;;;3.50;1.95;;;;;;;6.46;100.00;91755.13;5031722;28;20053;-62
2023/03/10 07:00:38;;;;;;;8.77;5.78;;;;;;;6.54;100.00;91738.13;5027604;28;20087;-64
2023/03/10 07:03:05;;;;;;;5.13;2.40;;;;;;;6.52;100.00;91753.38;5011689;28;20825;-64
2023/03/10 07:05:32;;;;;;;4.82;2.95;;;;;;;6.47;100.00;91746.53;5024773;28;20071;-64
2023/03/10 07:07:59;;;;;;;4.23;2.23;;;;;;;6.51;100.00;91751.84;5030975;28;20972;-63
2023/03/10 07:10:25;;;;;;;3.95;2.28;;;;;;;6.50;100.00;91763.94;5031460;28;20046;-66
2023/03/10 07:12:55;;;;;;;3.35;1.83;;;;;;;6.45;100.00;91754.38;5030518;28;20049;-66
2023/03/10 07:15:22;;;;;;;2.42;1.30;;;;;;;6.55;100.00;91760.66;5030211;28;20064;-64
2023/03/10 07:17:49;;;;;;;2.67;1.60;;;;;;;6.57;100.00;91752.81;5031186;28;20041;-59
2023/03/10 07:20:16;;;;;;;3.67;1.67;;;;;;;6.59;100.00;91747.69;5031368;28;20704;-61
2023/03/10 07:22:43;;;;;;;3.95;1.92;;;;;;;6.57;100.00;91761.75;5030780;28;20087;-61
2023/03/10 07:25:10;;;;;;;4.07;1.70;;;;;;;6.57;100.00;91767.19;5031199;28;20050;-62
2023/03/10 07:27:37;;;;;;;2.83;1.35;;;;;;;6.51;100.00;91773.66;5031395;28;20376;-62
2023/03/10 07:30:05;;;;;;;3.25;1.58;;;;;;;6.46;100.00;91783.16;5041289;28;20048;-62
2023/03/10 07:32:32;;;;;;;2.47;1.00;;;;;;;6.36;100.00;91789.75;5031107;28;20068;-61
2023/03/10 07:34:59;;;;;;;3.15;1.40;;;;;;;6.16;100.00;91793.50;5043591;28;23365;-62
2023/03/10 07:37:26;;;;;;;2.92;1.55;;;;;;;6.08;100.00;91792.19;5030999;28;20042;-65
2023/03/10 07:39:54;;;;;;;2.97;1.30;;;;;;;6.06;100.00;91805.50;5028764;28;20266;-64
2023/03/10 07:42:21;;;;;;;2.20;1.15;;;;;;;6.10;100.00;91800.69;5030857;28;20052;-64
2023/03/10 07:44:47;;;;;;;2.00;0.80;;;;;;;6.11;100.00;91825.94;5030217;28;20106;-62
2023/03/10 07:47:14;;;;;;;2.20;0.98;;;;;;;6.17;100.00;91821.47;5029009;28;20498;-62
2023/03/10 07:49:45;;;;;;;2.80;1.40;;;;;;;6.18;100.00;91826.50;5028170;28;20056;-62
2023/03/10 07:52:13;;;;;;;1.98;1.10;;;;;;;6.10;100.00;91819.75;5030859;28;20517;-62
2023/03/10 07:54:40;;;;;;;1.90;0.90;;;;;;;5.96;100.00;91825.66;5030197;28;20045;-62
2023/03/10 07:57:07;;;;;;;2.57;1.50;;;;;;;6.22;100.00;91823.66;5030889;28;20241;-62
2023/03/10 07:59:34;;;;;;;2.05;0.82;;;;;;;6.15;100.00;91827.34;5027285;28;20053;-63
2023/03/10 08:02:01;;;;;;;2.20;1.00;;;;;;;6.11;100.00;91823.22;5013751;28;20042;-63
2023/03/10 08:04:27;;;;;;;1.80;0.77;;;;;;;6.06;100.00;91832.72;5014062;28;20049;-63
2023/03/10 08:06:54;;;;;;;1.98;1.05;;;;;;;6.05;100.00;91838.59;5029529;28;20075;-63
2023/03/10 08:09:21;;;;;;;1.90;0.60;;;;;;;6.11;100.00;91842.28;5029016;28;20048;-63
2023/03/10 08:11:48;;;;;;;2.30;1.00;;;;;;;6.15;100.00;91840.97;5029936;28;20045;-63
2023/03/10 08:14:17;;;;;;;2.40;1.10;;;;;;;6.31;100.00;91847.50;5043736;28;20049;-63
2023/03/10 08:16:46;;;;;;;2.83;1.20;;;;;;;6.36;100.00;91853.16;5029959;28;20057;-63
2023/03/10 08:19:13;;;;;;;2.83;1.10;;;;;;;6.31;100.00;91856.41;5029939;28;20095;-63
2023/03/10 08:21:39;;;;;;;2.63;0.70;;;;;;;6.15;100.00;91870.19;5029583;28;20285;-62
2023/03/10 08:24:06;;;;;;;2.03;0.80;;;;;;;6.08;100.00;91859.53;5028942;28;20099;-63
2023/03/10 08:26:33;;;;;;;2.17;1.00;;;;;;;6.13;100.00;91873.31;5030481;28;20060;-63
2023/03/10 08:29:00;;;;;;;3.65;0.90;;;;;;;6.19;100.00;91868.09;5028105;28;20057;-63
2023/03/10 08:31:26;;;;;;;2.25;1.10;;;;;;;6.27;100.00;91872.13;5029827;28;20118;-63
2023/03/10 08:33:55;;;;;;;2.30;0.90;;;;;;;6.32;100.00;91881.72;5041779;28;20049;-63
2023/03/10 08:36:26;;;;;;;2.55;0.95;;;;;;;6.19;100.00;91887.16;5030562;28;20037;-64
2023/03/10 08:38:55;;;;;;;2.33;1.20;;;;;;;6.22;100.00;91891.75;5020233;28;20118;-63
2023/03/10 08:41:32;;;;;;;3.55;1.13;;;;;;;6.24;100.00;91907.63;5029942;28;20049;-63
2023/03/10 08:44:02;;;;;;;3.33;1.33;;;;;;;6.12;100.00;91892.84;5017619;28;20050;-63
2023/03/10 08:46:30;;;;;;;1.87;0.80;;;;;;;6.08;100.00;91908.53;5029868;28;20042;-63
2023/03/10 08:48:57;;;;;;;2.60;0.90;;;;;;;6.16;100.00;91904.41;5042196;28;20033;-63
2023/03/10 08:51:26;;;;;;;3.72;1.33;;;;;;;6.12;100.00;91899.06;5029901;28;20053;-63
2023/03/10 08:53:53;;;;;;;2.50;1.15;;;;;;;6.11;100.00;91905.69;5029018;28;20490;-63
2023/03/10 08:56:21;;;;;;;2.88;1.23;;;;;;;6.43;100.00;91906.63;5029454;28;20053;-62
2023/03/10 08:58:47;;;;;;;2.23;1.00;;;;;;;6.45;100.00;91915.13;5028337;28;20048;-63
2023/03/10 09:01:16;;;;;;;3.10;1.02;;;;;;;6.89;100.00;91903.59;5020408;28;20049;-63
2023/03/10 09:03:44;;;;;;;2.33;1.15;;;;;;;7.10;100.00;91896.63;5024543;28;20060;-63
2023/03/10 09:06:11;;;;;;;1.80;0.88;;;;;;;7.34;100.00;91899.69;5025289;28;20042;-63
2023/03/10 09:08:40;;;;;;;2.40;1.20;;;;;;;6.93;100.00;91910.44;5042212;28;20402;-61
2023/03/10 09:11:08;;;;;;;2.00;0.90;;;;;;;6.90;100.00;91900.44;5028206;28;21579;-61
2023/03/10 09:13:34;;;;;;;3.17;0.98;;;;;;;7.20;100.00;91898.22;5029037;28;20041;-61
2023/03/10 09:16:01;;;;;;;2.67;1.10;;;;;;;7.23;100.00;91904.78;5028343;28;20045;-61
2023/03/10 09:18:28;;;;;;;3.38;1.00;;;;;;;6.92;100.00;91917.13;5029088;28;20059;-61
2023/03/10 09:20:55;;;;;;;1.80;0.80;;;;;;;6.70;100.00;91910.84;5028729;28;20126;-61
2023/03/10 09:23:22;;;;;;;2.47;1.00;;;;;;;6.71;100.00;91907.69;5029184;28;20041;-61
2023/03/10 09:25:48;;;;;;;2.88;0.85;;;;;;;6.29;100.00;91912.53;5028565;28;20051;-63
2023/03/10 09:28:15;;;;;;;3.08;1.40;;;;;;;6.29;100.00;91899.69;5028828;28;20110;-61
2023/03/10 09:30:45;;;;;;;3.00;1.10;;;;;;;6.40;100.00;91907.53;5026933;28;20041;-61
2023/03/10 09:33:17;;;;;;;5.75;1.20;;;;;;;6.63;100.00;91905.63;5028558;28;20045;-61
2023/03/10 09:35:45;;;;;;;2.43;1.00;;;;;;;6.47;100.00;91909.25;5028659;28;20042;-63
2023/03/10 09:38:24;;;;;;;3.85;1.00;;;;;;;6.49;100.00;91915.03;5028753;28;20061;-61
2023/03/10 09:41:20;;;;;;;3.75;1.38;;;;;;;6.56;100.00;91918.28;5028263;28;20071;-63
2023/03/10 09:44:06;;;;;;;4.00;0.90;;;;;;;6.57;100.00;91913.59;5009948;28;20048;-63
2023/03/10 09:46:56;;;;;;;3.50;1.17;;;;;;;6.54;100.00;91909.78;5028846;28;20053;-63
2023/03/10 09:49:38;;;;;;;3.00;1.00;;;;;;;6.58;100.00;91915.13;5038316;28;20159;-63
2023/03/10 09:52:21;;;;;;;4.57;1.10;;;;;;;6.45;100.00;91911.66;5028500;28;20417;-63
2023/03/10 09:55:00;;;;;;;4.70;1.25;;;;;;;6.52;100.00;91920.38;5028553;28;20045;-63
2023/03/10 09:57:30;;;;;;;3.58;1.00;;;;;;;6.50;100.00;91916.53;5017450;28;20061;-63
2023/03/10 10:00:01;;;;;;;3.30;1.20;;;;;;;6.53;100.00;91915.69;5027989;28;20049;-62
2023/03/10 10:02:40;;;;;;;3.70;1.10;;;;;;;6.46;100.00;91918.63;5010120;28;20048;-62
2023/03/10 10:05:18;;;;;;;3.70;1.00;;;;;;;6.67;100.00;91919.91;5016123;28;20907;-62
2023/03/10 10:07:51;;;;;;;2.95;1.10;;;;;;;6.49;100.00;91915.03;5026820;28;20107;-62
2023/03/10 10:10:30;;;;;;;4.40;1.13;;;;;;;6.36;100.00;91923.97;5028414;28;20049;-62
2023/03/10 10:13:01;;;;;;;3.63;1.10;;;;;;;6.81;100.00;91911.25;5031479;28;20052;-62
2023/03/10 10:15:30;;;;;;;4.03;1.40;;;;;;;6.94;100.00;91922.91;5032459;28;20060;-62
2023/03/10 10:18:04;;;;;;;3.85;1.10;;;;;;;6.86;100.00;91920.81;5032185;28;20049;-62
2023/03/10 10:20:50;;;;;;;3.95;1.55;;;;;;;6.78;100.00;91923.03;5032228;28;20502;-62
2023/03/10 10:23:31;;;;;;;3.78;1.30;;;;;;;6.59;100.00;91920.13;5032499;28;20095;-62
2023/03/10 10:26:08;;;;;;;3.28;1.10;;;;;;;6.74;100.00;91925.09;5031870;28;20050;-62
2023/03/10 10:28:48;;;;;;;4.47;1.10;;;;;;;6.80;100.00;91915.94;5032228;28;20499;-62
2023/03/10 10:31:20;;;;;;;3.30;1.10;;;;;;;6.89;100.00;91911.78;5031167;28;20501;-62
2023/03/10 10:33:54;;;;;;;4.40;1.20;;;;;;;6.75;100.00;91918.47;5031858;28;20053;-62
2023/03/10 10:36:23;;;;;;;3.75;1.20;;;;;;;6.83;100.00;91922.47;5032237;28;20058;-62
2023/03/10 10:38:53;;;;;;;4.28;1.00;;;;;;;7.44;100.00;91911.44;5022167;28;20037;-62
2023/03/10 10:41:40;;;;;;;3.37;1.43;;;;;;;7.02;100.00;91904.31;5032135;28;20041;-62
2023/03/10 10:44:14;;;;;;;4.22;1.20;;;;;;;7.54;100.00;91919.25;5030008;28;20758;-62
2023/03/10 10:46:51;;;;;;;3.75;1.30;;;;;;;7.35;100.00;91909.41;5033421;28;20060;-62
2023/03/10 10:49:24;;;;;;;4.25;1.10;;;;;;;7.46;100.00;91906.31;5041920;28;20396;-62
2023/03/10 10:52:16;;;;;;;3.13;1.17;;;;;;;7.39;100.00;91912.78;5031409;28;20229;-63
2023/03/10 10:54:57;;;;;;;2.30;0.80;;;;;;;7.37;100.00;91909.75;5031619;28;20055;-62
2023/03/10 10:57:32;;;;;;;3.17;1.63;;;;;;;7.36;100.00;91911.72;5031765;28;20052;-62
2023/03/10 11:00:17;;;;;;;3.35;1.33;;;;;;;7.21;100.00;91927.03;5031152;28;20099;-62
2023/03/10 11:02:44;;;;;;;2.30;0.93;;;;;;;7.34;100.00;91925.00;5013678;28;20061;-62
2023/03/10 11:05:16;;;;;;;3.08;1.25;;;;;;;7.10;100.00;91913.00;5021014;28;20045;-62
2023/03/10 11:07:43;;;;;;;4.70;1.07;;;;;;;7.12;100.00;91916.84;5041235;28;20045;-62
2023/03/10 11:10:15;;;;;;;2.95;1.02;;;;;;;7.01;100.00;91919.16;5034335;28;20091;-62
2023/03/10 11:12:48;;;;;;;3.08;1.40;;;;;;;7.19;100.00;91926.72;5031068;28;20042;-62
2023/03/10 11:15:23;;;;;;;2.45;1.40;;;;;;;6.97;100.00;91934.88;5030147;28;20115;-62
2023/03/10 11:18:06;;;;;;;4.55;1.35;;;;;;;7.33;100.00;91933.66;5029406;28;20049;-62
2023/03/10 11:20:53;;;;;;;2.93;1.50;;;;;;;7.91;100.00;91937.84;5031395;28;20365;-62
2023/03/10 11:23:19;;;;;;;3.50;1.80;;;;;;;8.32;100.00;91930.44;5043211;28;20854;-62
2023/03/10 11:25:52;;;;;;;4.80;2.20;;;;;;;8.16;100.00;91931.41;5030935;28;20091;-63
2023/03/10 11:28:24;;;;;;;4.50;1.92;;;;;;;8.45;100.00;91933.84;5030789;28;20445;-62
2023/03/10 11:31:03;;;;;;;2.47;1.10;;;;;;;8.07;100.00;91951.28;5029211;28;20502;-63
2023/03/10 11:34:08;;;;;;;3.13;1.50;;;;;;;7.65;100.00;91940.72;5018047;28;20054;-63
2023/03/10 11:36:58;;;;;;;2.72;1.45;;;;;;;7.37;100.00;91947.94;5030800;28;20948;-63
2023/03/10 11:39:53;;;;;;;2.75;1.13;;;;;;;7.81;100.00;91956.13;5030356;28;21451;-63
2023/03/10 11:42:20;;;;;;;2.30;1.20;;;;;;;8.26;100.00;91954.84;5030159;28;20621;-63